Time;durP1;ratioP1;P1;durP2;ratioP2;P2;SDS_P1;SDS_P2;PMS_P1;PMS_P2;Temp;Humidity;BMP_temperature;BMP_pressure;BME280_temperature;BME280_humidity;BME280_pressure;Samples;Min_cycle;Max_cycle;Signal;HPM_P1;HPM_P2
2023/04/26 00:01:57;;;;;;;;;;;;;;;12.47;56.52;99232.25;4424589;32;33410;-88
2023/04/26 00:04:27;;;;;;;;;;;;;;;12.25;57.82;99233.53;4418319;32;32807;-88
2023/04/26 00:06:56;;;;;;;;;;;;;;;12.27;57.56;99229.00;4423592;32;34746;-88
2023/04/26 00:09:25;;;;;;;;;;;;;;;12.38;57.40;99236.28;4411117;32;33112;-88
2023/04/26 00:11:53;;;;;;;;;;;;;;;12.73;56.14;99238.63;4393278;32;33257;-88
2023/04/26 00:14:20;;;;;;;;;;;;;;;12.48;57.01;99242.72;4393405;32;34325;-88
2023/04/26 00:16:48;;;;;;;;;;;;;;;12.25;57.71;99245.94;4393607;32;33498;-88
2023/04/26 00:19:17;;;;;;;;;;;;;;;12.44;57.39;99243.88;4393513;32;33500;-88
2023/04/26 00:21:45;;;;;;;;;;;;;;;12.21;57.77;99250.53;4381527;32;34173;-88
2023/04/26 00:24:13;;;;;;;;;;;;;;;12.47;56.84;99251.63;4393297;32;33216;-88
2023/04/26 00:26:40;;;;;;;;;;;;;;;12.26;57.57;99244.97;4392456;32;33449;-89
2023/04/26 00:29:08;;;;;;;;;;;;;;;12.53;56.69;99256.56;4393556;32;33095;-88
2023/04/26 00:31:41;;;;;;;;;;;;;;;12.55;56.71;99253.81;4392693;32;34229;-88
2023/04/26 00:34:09;;;;;;;;;;;;;;;12.47;57.06;99258.72;4394038;32;33411;-88
2023/04/26 00:36:37;;;;;;;;;;;;;;;12.51;56.78;99261.09;4403971;32;34704;-87
2023/04/26 00:39:05;;;;;;;;;;;;;;;12.21;57.93;99271.72;4393022;32;33528;-88
2023/04/26 00:41:33;;;;;;;;;;;;;;;12.64;56.39;99270.97;4393523;32;33435;-88
2023/04/26 00:44:01;;;;;;;;;;;;;;;12.76;55.62;99278.16;4393246;32;34063;-87
2023/04/26 00:46:29;;;;;;;;;;;;;;;12.87;55.49;99272.22;4378829;32;33569;-88
2023/04/26 00:48:57;;;;;;;;;;;;;;;12.25;57.54;99275.06;4386313;32;33250;-88
2023/04/26 00:51:25;;;;;;;;;;;;;;;12.63;56.15;99271.88;4393210;32;32868;-88
2023/04/26 00:53:53;;;;;;;;;;;;;;;12.29;57.34;99276.53;4386071;32;32653;-88
2023/04/26 00:56:20;;;;;;;;;;;;;;;11.74;59.20;99290.31;4391601;32;33302;-88
2023/04/26 00:58:49;;;;;;;;;;;;;;;12.26;57.52;99271.44;4378398;32;33331;-87
2023/04/26 01:01:17;;;;;;;;;;;;;;;12.34;56.76;99277.13;4403944;32;32646;-88
2023/04/26 01:03:45;;;;;;;;;;;;;;;12.56;55.67;99276.72;4380971;32;32888;-88
2023/04/26 01:06:14;;;;;;;;;;;;;;;12.33;56.74;99288.66;4393276;32;33433;-89
2023/04/26 01:08:42;;;;;;;;;;;;;;;12.28;56.90;99285.44;4356884;32;932526;-89
2023/04/26 01:11:10;;;;;;;;;;;;;;;12.05;57.30;99284.13;4399288;32;32282;-88
2023/04/26 01:13:38;;;;;;;;;;;;;;;12.16;56.80;99287.03;4393072;32;32960;-89
2023/04/26 01:16:06;;;;;;;;;;;;;;;11.96;57.47;99290.81;4392414;32;33210;-88
2023/04/26 01:18:34;;;;;;;;;;;;;;;11.87;57.84;99290.47;4405370;32;32957;-89
2023/04/26 01:21:03;;;;;;;;;;;;;;;11.75;58.24;99281.44;4389103;32;32787;-90
2023/04/26 01:23:31;;;;;;;;;;;;;;;11.52;58.66;99286.22;4404923;32;34117;-89
2023/04/26 01:26:00;;;;;;;;;;;;;;;11.58;58.07;99294.72;4393452;32;33356;-89
2023/04/26 01:28:28;;;;;;;;;;;;;;;11.83;57.11;99310.97;4404824;32;33360;-89
2023/04/26 01:30:56;;;;;;;;;;;;;;;11.82;57.25;99297.78;4365382;32;34276;-89
2023/04/26 01:33:24;;;;;;;;;;;;;;;11.91;57.25;99307.87;4392961;32;33264;-89
2023/04/26 01:35:52;;;;;;;;;;;;;;;11.73;57.77;99313.25;4380997;32;35311;-89
2023/04/26 01:38:21;;;;;;;;;;;;;;;11.77;57.25;99314.81;4401636;32;34028;-89
2023/04/26 01:40:50;;;;;;;;;;;;;;;11.67;57.57;99316.22;4390770;32;33771;-89
2023/04/26 01:43:23;;;;;;;;;;;;;;;11.92;56.72;99315.75;4401606;32;33667;-89
2023/04/26 01:45:50;;;;;;;;;;;;;;;11.75;57.18;99315.81;4390816;32;32960;-89
2023/04/26 01:48:28;;;;;;;;;;;;;;;11.82;56.90;99319.88;4394204;32;34537;-89
2023/04/26 01:50:59;;;;;;;;;;;;;;;11.77;56.99;99320.09;4395253;32;33737;-89
2023/04/26 01:53:28;;;;;;;;;;;;;;;11.44;57.92;99325.44;4394703;32;32760;-89
2023/04/26 01:55:59;;;;;;;;;;;;;;;11.34;58.05;99324.22;4402703;32;33548;-89
2023/04/26 01:58:27;;;;;;;;;;;;;;;11.15;58.68;99324.38;4394359;32;32927;-89
2023/04/26 02:00:56;;;;;;;;;;;;;;;11.40;57.92;99334.47;4380933;32;33842;-89
2023/04/26 02:03:23;;;;;;;;;;;;;;;11.53;57.31;99324.06;4394640;32;32897;-89
2023/04/26 02:05:51;;;;;;;;;;;;;;;11.60;57.09;99335.19;4393602;32;33280;-89
2023/04/26 02:08:20;;;;;;;;;;;;;;;11.52;57.42;99328.50;4406988;32;33237;-89
2023/04/26 02:10:48;;;;;;;;;;;;;;;11.73;56.66;99325.63;4413757;32;34035;-89
2023/04/26 02:13:15;;;;;;;;;;;;;;;11.56;56.96;99328.34;4409620;32;34130;-89
2023/04/26 02:15:48;;;;;;;;;;;;;;;11.36;57.76;99332.94;4409441;32;34321;-88
2023/04/26 02:18:16;;;;;;;;;;;;;;;11.56;56.87;99333.62;4421821;32;34218;-88
2023/04/26 02:20:44;;;;;;;;;;;;;;;11.27;57.64;99341.38;4407596;32;32842;-88
2023/04/26 02:23:13;;;;;;;;;;;;;;;11.17;58.16;99326.94;4409966;32;32777;-88
2023/04/26 02:25:44;;;;;;;;;;;;;;;11.54;56.95;99337.22;4422267;32;34714;-88
2023/04/26 02:28:12;;;;;;;;;;;;;;;11.52;56.81;99328.50;4421950;32;33033;-88
2023/04/26 02:30:39;;;;;;;;;;;;;;;11.30;57.50;99338.56;4409388;32;33718;-88
2023/04/26 02:33:07;;;;;;;;;;;;;;;11.57;56.46;99335.34;4409071;32;34190;-88
2023/04/26 02:35:36;;;;;;;;;;;;;;;11.42;56.91;99347.59;4409300;32;34126;-88
2023/04/26 02:38:04;;;;;;;;;;;;;;;10.83;59.16;99344.56;4409319;32;33461;-88
2023/04/26 02:40:32;;;;;;;;;;;;;;;11.00;58.51;99346.31;4405576;32;32702;-88
2023/04/26 02:43:01;;;;;;;;;;;;;;;11.42;57.21;99337.87;4409486;32;32440;-88
2023/04/26 02:45:30;;;;;;;;;;;;;;;11.25;57.55;99335.28;4409429;32;34177;-88
2023/04/26 02:47:59;;;;;;;;;;;;;;;11.47;56.80;99341.12;4408796;32;33566;-88
2023/04/26 02:50:28;;;;;;;;;;;;;;;11.13;57.91;99339.47;4421769;32;33274;-88
2023/04/26 02:52:55;;;;;;;;;;;;;;;11.30;57.19;99343.84;4384349;32;32964;-89
2023/04/26 02:55:23;;;;;;;;;;;;;;;11.05;58.10;99346.06;4409040;32;33533;-88
2023/04/26 02:57:51;;;;;;;;;;;;;;;11.31;57.16;99350.84;4409123;32;32919;-88
2023/04/26 03:00:18;;;;;;;;;;;;;;;11.11;57.80;99345.75;4406724;32;34016;-88
2023/04/26 03:02:47;;;;;;;;;;;;;;;11.07;58.07;99346.88;4414394;32;33444;-89
2023/04/26 03:05:18;;;;;;;;;;;;;;;10.67;59.37;99362.13;4422425;32;34384;-89
2023/04/26 03:07:48;;;;;;;;;;;;;;;10.64;59.10;99373.72;4409265;32;33386;-89
2023/04/26 03:10:15;;;;;;;;;;;;;;;10.81;58.52;99364.91;4406800;32;32457;-89
2023/04/26 03:12:45;;;;;;;;;;;;;;;10.64;58.92;99372.88;4401834;32;32862;-89
2023/04/26 03:15:14;;;;;;;;;;;;;;;10.68;58.93;99377.91;4400790;32;32498;-89
2023/04/26 03:17:42;;;;;;;;;;;;;;;10.60;59.63;99376.59;4411539;32;34511;-89
2023/04/26 03:20:12;;;;;;;;;;;;;;;10.61;59.72;99380.94;4398382;32;33758;-89
2023/04/26 03:22:42;;;;;;;;;;;;;;;10.66;59.81;99392.97;4402001;32;32947;-89
2023/04/26 03:25:09;;;;;;;;;;;;;;;10.69;59.58;99390.19;4412371;32;34079;-89
2023/04/26 03:27:38;;;;;;;;;;;;;;;11.10;58.08;99395.09;4413015;32;33159;-89
2023/04/26 03:30:06;;;;;;;;;;;;;;;11.27;57.52;99391.59;4387026;32;31676;-88
2023/04/26 03:32:34;;;;;;;;;;;;;;;11.25;57.33;99393.44;4412796;32;33446;-90
2023/04/26 03:35:28;;;;;;;;;;;;;;;11.24;57.38;99397.88;4413390;32;33125;-90
2023/04/26 03:37:57;;;;;;;;;;;;;;;11.00;58.08;99402.66;4400009;32;33901;-90
2023/04/26 03:40:32;;;;;;;;;;;;;;;11.11;57.59;99407.41;4398954;32;32268;-90
2023/04/26 03:43:21;;;;;;;;;;;;;;;11.00;57.94;99400.00;4413055;32;33842;-90
2023/04/26 03:45:51;;;;;;;;;;;;;;;11.24;57.16;99407.59;4403242;32;34118;-90
2023/04/26 03:48:20;;;;;;;;;;;;;;;10.81;57.92;99403.69;4403731;32;32711;-90
2023/04/26 03:50:55;;;;;;;;;;;;;;;11.21;56.83;99411.25;4414650;32;34543;-90
2023/04/26 03:53:30;;;;;;;;;;;;;;;11.21;56.59;99402.47;4412881;32;34571;-90
2023/04/26 03:56:03;;;;;;;;;;;;;;;11.31;56.52;99409.00;4404498;32;33154;-90
2023/04/26 03:59:03;;;;;;;;;;;;;;;11.13;57.15;99415.25;4370045;32;32827;-90
2023/04/26 04:02:00;;;;;;;;;;;;;;;11.26;56.84;99408.38;4385097;32;32603;-86
2023/04/26 04:04:30;;;;;;;;;;;;;;;11.41;56.46;99412.00;4384212;32;34107;-87
2023/04/26 04:06:58;;;;;;;;;;;;;;;11.29;56.00;99421.41;4396845;32;33371;-88
2023/04/26 04:09:26;;;;;;;;;;;;;;;11.48;55.45;99426.59;4365149;32;33628;-86
2023/04/26 04:11:54;;;;;;;;;;;;;;;11.44;55.49;99425.91;4365924;32;32188;-87
2023/04/26 04:14:22;;;;;;;;;;;;;;;11.72;54.45;99422.59;4372360;32;34158;-88
2023/04/26 04:16:51;;;;;;;;;;;;;;;11.40;55.49;99434.94;4366071;32;33463;-88
2023/04/26 04:19:19;;;;;;;;;;;;;;;11.21;56.23;99439.47;4366265;32;34199;-88
2023/04/26 04:21:48;;;;;;;;;;;;;;;11.24;56.52;99449.88;4365341;32;33028;-88
2023/04/26 04:24:16;;;;;;;;;;;;;;;11.41;55.66;99452.50;4370815;32;34166;-88
2023/04/26 04:26:46;;;;;;;;;;;;;;;11.26;56.26;99458.59;4366301;32;33023;-87
2023/04/26 04:29:14;;;;;;;;;;;;;;;10.91;57.47;99463.03;4354373;32;34552;-88
2023/04/26 04:31:43;;;;;;;;;;;;;;;11.00;57.59;99463.41;4378919;32;32816;-93
2023/04/26 04:34:25;;;;;;;;;;;;;;;11.19;56.84;99467.75;4367440;32;31249;-87
2023/04/26 04:36:53;;;;;;;;;;;;;;;11.41;55.34;99467.50;4379702;32;33368;-88
2023/04/26 04:39:25;;;;;;;;;;;;;;;11.65;54.73;99475.94;4358450;32;32864;-88
2023/04/26 04:41:53;;;;;;;;;;;;;;;11.38;55.66;99479.09;4378076;32;33340;-88
2023/04/26 04:44:26;;;;;;;;;;;;;;;11.06;56.31;99479.88;4353902;32;33976;-88
2023/04/26 04:46:57;;;;;;;;;;;;;;;11.23;55.93;99488.66;4378789;32;33736;-88
2023/04/26 04:49:25;;;;;;;;;;;;;;;10.95;56.49;99486.56;4373466;32;33157;-88
2023/04/26 04:51:56;;;;;;;;;;;;;;;11.41;55.20;99492.16;4352867;32;32618;-88
2023/04/26 04:54:24;;;;;;;;;;;;;;;11.36;55.48;99498.63;4370462;32;32762;-88
2023/04/26 04:56:57;;;;;;;;;;;;;;;11.24;55.87;99493.00;4372279;32;33816;-88
2023/04/26 04:59:25;;;;;;;;;;;;;;;11.49;54.46;99492.63;4365572;32;34509;-88
2023/04/26 05:01:57;;;;;;;;;;;;;;;11.22;55.15;99500.19;4385267;32;32896;-88
2023/04/26 05:04:27;;;;;;;;;;;;;;;11.09;55.46;99498.22;4371545;32;33584;-88
2023/04/26 05:06:56;;;;;;;;;;;;;;;10.60;57.00;99500.69;4368990;32;32020;-88
2023/04/26 05:09:25;;;;;;;;;;;;;;;11.15;55.91;99505.84;4384859;32;33231;-88
2023/04/26 05:11:54;;;;;;;;;;;;;;;11.42;54.82;99501.78;4372586;32;33202;-88
2023/04/26 05:14:23;;;;;;;;;;;;;;;11.29;54.92;99500.72;4385017;32;33229;-87
2023/04/26 05:16:52;;;;;;;;;;;;;;;11.42;53.81;99512.38;4374421;32;32774;-88
2023/04/26 05:19:21;;;;;;;;;;;;;;;10.97;54.67;99524.34;4383435;32;35065;-87
2023/04/26 05:21:55;;;;;;;;;;;;;;;11.39;53.66;99517.78;4371027;32;32852;-87
2023/04/26 05:24:33;;;;;;;;;;;;;;;11.52;53.01;99510.94;4401987;32;35849;-86
2023/04/26 05:29:40;;;;;;;;;;;;;;;11.00;54.76;99518.91;4389756;32;32948;-85
2023/04/26 05:32:09;;;;;;;;;;;;;;;10.98;54.44;99519.91;4374622;32;32324;-85
2023/04/26 05:34:40;;;;;;;;;;;;;;;11.53;52.69;99517.94;4366504;32;34222;-85
2023/04/26 05:37:09;;;;;;;;;;;;;;;11.57;53.12;99531.00;4391437;32;33369;-89
2023/04/26 05:39:39;;;;;;;;;;;;;;;11.40;53.65;99530.09;4385745;32;35084;-84
2023/04/26 05:42:08;;;;;;;;;;;;;;;11.82;51.53;99526.19;4378022;32;33088;-84
2023/04/26 05:44:37;;;;;;;;;;;;;;;12.00;50.90;99530.47;4376453;32;33834;-85
2023/04/26 05:47:07;;;;;;;;;;;;;;;12.03;49.75;99527.69;4362951;32;33311;-85
2023/04/26 05:49:37;;;;;;;;;;;;;;;11.92;50.09;99522.13;4390888;32;33541;-85
2023/04/26 05:52:08;;;;;;;;;;;;;;;12.25;49.51;99531.81;4363727;32;32480;-85
2023/04/26 05:54:39;;;;;;;;;;;;;;;11.97;49.97;99525.38;4364490;32;34287;-85
2023/04/26 05:57:08;;;;;;;;;;;;;;;11.61;49.83;99525.47;4379346;32;33900;-85
2023/04/26 05:59:39;;;;;;;;;;;;;;;11.69;48.87;99530.38;4380425;32;33773;-85
2023/04/26 06:02:09;;;;;;;;;;;;;;;11.89;48.58;99534.66;4378331;32;32498;-85
2023/04/26 06:04:38;;;;;;;;;;;;;;;11.64;49.62;99537.72;4377347;32;34028;-85
2023/04/26 06:07:09;;;;;;;;;;;;;;;12.05;47.84;99541.66;4390327;32;33374;-84
2023/04/26 06:09:36;;;;;;;;;;;;;;;12.12;48.63;99541.34;4361955;32;33127;-85
2023/04/26 06:12:08;;;;;;;;;;;;;;;12.18;46.92;99538.38;4368977;32;31921;-85
2023/04/26 06:14:36;;;;;;;;;;;;;;;11.90;48.40;99542.50;4370621;32;32233;-86
2023/04/26 06:17:04;;;;;;;;;;;;;;;12.51;46.00;99539.16;4362455;32;30967;-84
2023/04/26 06:19:33;;;;;;;;;;;;;;;12.44;44.70;99540.44;4384571;32;35189;-85
2023/04/26 06:22:00;;;;;;;;;;;;;;;12.40;45.75;99538.06;4371610;32;32862;-86
2023/04/26 06:24:29;;;;;;;;;;;;;;;12.09;46.58;99538.88;4371331;32;33358;-85
2023/04/26 06:26:59;;;;;;;;;;;;;;;12.63;45.71;99534.97;4393822;32;34015;-84
2023/04/26 06:29:32;;;;;;;;;;;;;;;13.05;43.22;99542.28;4355904;32;33485;-84
2023/04/26 06:32:01;;;;;;;;;;;;;;;12.75;44.33;99533.41;4372163;32;34178;-85
2023/04/26 06:34:30;;;;;;;;;;;;;;;12.70;45.25;99543.44;4395747;32;33349;-84
2023/04/26 06:37:01;;;;;;;;;;;;;;;13.10;43.88;99543.78;4368122;32;33751;-84
2023/04/26 06:39:30;;;;;;;;;;;;;;;13.42;42.49;99534.81;4368629;32;33602;-85
2023/04/26 06:41:59;;;;;;;;;;;;;;;13.67;41.58;99543.97;4395017;32;33478;-84
2023/04/26 06:44:28;;;;;;;;;;;;;;;13.73;42.11;99539.16;4382237;32;32907;-85
2023/04/26 06:46:59;;;;;;;;;;;;;;;13.41;41.54;99543.72;4382728;32;34630;-85
2023/04/26 06:49:33;;;;;;;;;;;;;;;13.56;40.49;99549.91;4382948;32;33813;-87
2023/04/26 06:52:01;;;;;;;;;;;;;;;13.29;39.86;99544.44;4372267;32;33861;-83
2023/04/26 06:54:31;;;;;;;;;;;;;;;13.36;40.13;99545.81;4383189;32;34009;-84
2023/04/26 06:57:01;;;;;;;;;;;;;;;13.34;40.32;99545.06;4382081;32;32839;-84
2023/04/26 06:59:29;;;;;;;;;;;;;;;13.28;40.70;99545.41;4379972;32;33360;-84
2023/04/26 07:01:58;;;;;;;;;;;;;;;13.03;40.84;99551.25;4390707;32;32409;-84
2023/04/26 07:04:27;;;;;;;;;;;;;;;13.65;40.60;99541.41;4390433;32;33675;-84
2023/04/26 07:06:59;;;;;;;;;;;;;;;13.45;39.75;99552.37;4393652;32;34243;-83
2023/04/26 07:09:28;;;;;;;;;;;;;;;13.02;41.33;99557.50;4370814;32;34300;-84
2023/04/26 07:12:04;;;;;;;;;;;;;;;13.32;40.66;99550.44;4390611;32;33270;-84
2023/04/26 07:14:37;;;;;;;;;;;;;;;13.34;41.37;99558.31;4406111;32;33730;-84
2023/04/26 07:17:06;;;;;;;;;;;;;;;13.00;41.50;99557.56;4392415;32;32821;-84
2023/04/26 07:19:36;;;;;;;;;;;;;;;13.69;40.08;99547.38;4393139;32;35013;-85
2023/04/26 07:22:04;;;;;;;;;;;;;;;13.83;39.03;99552.72;4379582;32;32111;-84
2023/04/26 07:24:32;;;;;;;;;;;;;;;13.74;39.93;99561.22;4379476;32;33158;-84
2023/04/26 07:27:02;;;;;;;;;;;;;;;13.51;39.28;99571.41;4406335;32;33588;-84
2023/04/26 07:29:35;;;;;;;;;;;;;;;13.64;40.13;99565.38;4381263;32;34546;-85
2023/04/26 07:32:03;;;;;;;;;;;;;;;12.92;39.82;99573.06;4381036;32;33491;-84
2023/04/26 07:34:37;;;;;;;;;;;;;;;13.36;37.99;99572.31;4380996;32;32885;-84
2023/04/26 07:37:05;;;;;;;;;;;;;;;13.39;37.86;99574.81;4367585;32;34037;-84
2023/04/26 07:39:36;;;;;;;;;;;;;;;13.37;39.58;99589.94;4403618;32;34958;-84
2023/04/26 07:42:07;;;;;;;;;;;;;;;13.53;38.25;99580.16;4381780;32;33303;-85
2023/04/26 07:44:37;;;;;;;;;;;;;;;13.88;37.01;99569.22;4392333;32;33906;-86
2023/04/26 07:47:04;;;;;;;;;;;;;;;13.89;38.51;99576.22;4393376;32;34737;-84
2023/04/26 07:49:33;;;;;;;;;;;;;;;14.20;39.32;99569.03;4392545;32;33077;-84
2023/04/26 07:52:02;;;;;;;;;;;;;;;14.13;36.97;99573.00;4380792;32;32385;-84
2023/04/26 07:54:36;;;;;;;;;;;;;;;14.41;35.91;99561.50;4380163;32;32967;-85
2023/04/26 07:57:04;;;;;;;;;;;;;;;14.04;35.71;99574.41;4392551;32;33606;-85
2023/04/26 07:59:32;;;;;;;;;;;;;;;14.17;35.65;99590.47;4380050;32;34187;-86
2023/04/26 08:02:02;;;;;;;;;;;;;;;13.96;36.19;99592.62;4392109;32;32318;-86
2023/04/26 08:04:32;;;;;;;;;;;;;;;13.95;35.76;99591.75;4365706;32;32182;-85
2023/04/26 08:07:01;;;;;;;;;;;;;;;14.34;34.72;99599.09;4380022;32;33010;-86
2023/04/26 08:09:30;;;;;;;;;;;;;;;14.12;33.57;99589.87;4366487;32;33278;-85
2023/04/26 08:11:59;;;;;;;;;;;;;;;14.37;33.06;99597.19;4391809;32;33972;-87
2023/04/26 08:14:27;;;;;;;;;;;;;;;14.52;33.85;99601.56;4379926;32;34387;-86
2023/04/26 08:16:57;;;;;;;;;;;;;;;14.14;32.46;99606.56;4366677;32;34332;-86
2023/04/26 08:19:33;;;;;;;;;;;;;;;14.57;32.19;99600.34;4367113;32;33279;-85
2023/04/26 08:22:03;;;;;;;;;;;;;;;14.18;33.54;99590.34;4392985;32;33357;-86
2023/04/26 08:24:31;;;;;;;;;;;;;;;14.39;35.15;99600.62;4392737;32;33527;-87
2023/04/26 08:26:58;;;;;;;;;;;;;;;14.53;33.57;99609.44;4367618;32;33687;-87
2023/04/26 08:29:26;;;;;;;;;;;;;;;14.43;33.28;99610.94;4367784;32;33743;-87
2023/04/26 08:31:56;;;;;;;;;;;;;;;14.41;32.53;99610.19;4380601;32;32417;-85
2023/04/26 08:34:25;;;;;;;;;;;;;;;14.27;32.90;99623.47;4380827;32;33458;-86
2023/04/26 08:36:53;;;;;;;;;;;;;;;14.21;32.74;99618.53;4366505;32;33548;-85
2023/04/26 08:39:22;;;;;;;;;;;;;;;14.31;31.65;99601.94;4392213;32;33644;-85
2023/04/26 08:41:53;;;;;;;;;;;;;;;14.50;32.17;99624.72;4379861;32;33808;-85
2023/04/26 08:44:25;;;;;;;;;;;;;;;13.80;30.84;99625.38;4368222;32;33969;-85
2023/04/26 08:46:57;;;;;;;;;;;;;;;13.97;32.48;99632.34;4392913;32;33186;-86
2023/04/26 08:49:29;;;;;;;;;;;;;;;13.93;31.63;99636.13;4405851;32;33457;-85
2023/04/26 08:52:03;;;;;;;;;;;;;;;13.76;32.50;99631.81;4404989;32;33344;-86
2023/04/26 08:54:31;;;;;;;;;;;;;;;13.91;31.61;99640.69;4404913;32;32860;-86
2023/04/26 08:57:00;;;;;;;;;;;;;;;13.86;33.09;99628.63;4378773;32;34232;-86
2023/04/26 08:59:38;;;;;;;;;;;;;;;14.09;33.08;99636.06;4379823;32;34461;-86
2023/04/26 09:02:08;;;;;;;;;;;;;;;13.95;34.61;99626.25;4363740;32;33476;-87
2023/04/26 09:04:37;;;;;;;;;;;;;;;13.89;33.57;99634.59;4377004;32;33406;-87
2023/04/26 09:07:07;;;;;;;;;;;;;;;14.36;32.50;99628.19;4376939;32;33415;-86
2023/04/26 09:09:40;;;;;;;;;;;;;;;14.39;33.57;99636.00;4378082;32;33281;-86
2023/04/26 09:12:14;;;;;;;;;;;;;;;14.33;34.09;99633.69;4387433;32;33510;-85
2023/04/26 09:14:42;;;;;;;;;;;;;;;14.49;31.57;99623.88;4389148;32;33180;-86
2023/04/26 09:17:30;;;;;;;;;;;;;;;14.60;31.48;99620.53;4376036;32;32868;-86
2023/04/26 09:20:00;;;;;;;;;;;;;;;14.82;29.71;99612.06;4390808;32;35019;-85
2023/04/26 09:22:39;;;;;;;;;;;;;;;14.73;30.51;99628.59;4377592;32;33200;-86
2023/04/26 09:25:08;;;;;;;;;;;;;;;14.55;31.48;99627.94;4395469;32;34135;-86
2023/04/26 09:27:40;;;;;;;;;;;;;;;14.65;31.05;99612.28;4375769;32;34759;-87
2023/04/26 09:30:17;;;;;;;;;;;;;;;14.84;30.86;99611.00;4376516;32;35222;-86
2023/04/26 09:32:56;;;;;;;;;;;;;;;14.56;31.98;99614.56;4377813;32;33602;-86
2023/04/26 09:35:32;;;;;;;;;;;;;;;14.92;32.39;99625.63;4392657;32;33596;-87
2023/04/26 09:38:04;;;;;;;;;;;;;;;14.94;32.25;99616.56;4363723;32;33719;-85
2023/04/26 09:40:45;;;;;;;;;;;;;;;14.91;32.29;99619.44;4380159;32;33850;-85
2023/04/26 09:43:17;;;;;;;;;;;;;;;15.00;32.19;99612.66;4377605;32;32765;-86
2023/04/26 09:45:52;;;;;;;;;;;;;;;15.36;32.19;99618.22;4376378;32;33707;-86
2023/04/26 09:48:25;;;;;;;;;;;;;;;15.41;30.36;99630.38;4375722;32;33211;-86
2023/04/26 09:50:54;;;;;;;;;;;;;;;15.31;30.18;99622.16;4363703;32;34141;-87
2023/04/26 09:53:36;;;;;;;;;;;;;;;15.25;30.56;99617.25;4364569;32;33229;-87
2023/04/26 09:56:13;;;;;;;;;;;;;;;15.50;31.05;99622.63;4369572;32;34492;-86
2023/04/26 09:58:59;;;;;;;;;;;;;;;15.79;29.79;99611.87;4363947;32;34483;-86
2023/04/26 10:01:28;;;;;;;;;;;;;;;15.61;29.94;99629.88;4372143;32;33078;-86
2023/04/26 10:04:04;;;;;;;;;;;;;;;15.64;29.30;99631.53;4376728;32;33968;-87
2023/04/26 10:06:33;;;;;;;;;;;;;;;15.46;29.83;99626.44;4374088;32;33133;-86
2023/04/26 10:09:04;;;;;;;;;;;;;;;15.21;29.57;99629.88;4387956;32;33906;-86
2023/04/26 10:11:37;;;;;;;;;;;;;;;15.69;30.39;99616.97;4389716;32;33660;-86
2023/04/26 10:14:07;;;;;;;;;;;;;;;15.67;29.86;99620.69;4389341;32;33198;-86
2023/04/26 10:16:36;;;;;;;;;;;;;;;15.67;31.09;99624.22;4367254;32;34329;-86
2023/04/26 10:19:07;;;;;;;;;;;;;;;15.13;31.56;99636.66;4370547;32;33018;-86
2023/04/26 10:21:36;;;;;;;;;;;;;;;15.58;30.60;99632.78;4382311;32;32786;-86
2023/04/26 10:24:11;;;;;;;;;;;;;;;15.14;30.53;99628.56;4377942;32;32053;-86
2023/04/26 10:26:48;;;;;;;;;;;;;;;15.79;29.72;99626.03;4376111;32;34691;-88
2023/04/26 10:29:17;;;;;;;;;;;;;;;16.06;29.68;99615.31;4390815;32;33469;-88
2023/04/26 10:32:01;;;;;;;;;;;;;;;16.36;30.64;99633.63;4388879;32;34489;-88
2023/04/26 10:34:35;;;;;;;;;;;;;;;16.47;28.56;99618.66;4389666;32;33502;-87
2023/04/26 10:37:13;;;;;;;;;;;;;;;15.79;30.58;99630.50;4388935;32;34176;-86
2023/04/26 10:39:44;;;;;;;;;;;;;;;16.37;28.61;99629.97;4387158;32;33980;-87
2023/04/26 10:42:25;;;;;;;;;;;;;;;15.77;28.75;99633.28;4390194;32;33538;-87
2023/04/26 10:44:55;;;;;;;;;;;;;;;15.65;28.33;99636.75;4389998;32;32569;-86
2023/04/26 10:47:30;;;;;;;;;;;;;;;15.74;28.56;99635.28;4390209;32;34765;-86
2023/04/26 10:50:09;;;;;;;;;;;;;;;15.81;29.86;99625.94;4378005;32;33372;-86
2023/04/26 10:52:38;;;;;;;;;;;;;;;16.07;29.40;99627.66;4376989;32;33503;-87
2023/04/26 10:55:08;;;;;;;;;;;;;;;15.82;29.26;99638.28;4374510;32;32378;-87
2023/04/26 10:57:49;;;;;;;;;;;;;;;15.60;29.17;99644.16;4371399;32;32311;-88
2023/04/26 11:00:23;;;;;;;;;;;;;;;15.45;28.75;99635.41;4391629;32;32011;-86
2023/04/26 11:02:57;;;;;;;;;;;;;;;15.25;28.97;99635.87;4377936;32;33260;-86
2023/04/26 11:08:18;;;;;;;;;;;;;;;16.39;28.64;99617.41;4390240;32;33253;-86
2023/04/26 11:10:51;;;;;;;;;;;;;;;16.29;28.32;99621.69;4388767;32;34932;-86
2023/04/26 11:13:20;;;;;;;;;;;;;;;16.21;28.01;99612.53;4386842;32;35244;-86
2023/04/26 11:15:53;;;;;;;;;;;;;;;15.74;27.69;99614.00;4388390;32;33397;-86
2023/04/26 11:18:24;;;;;;;;;;;;;;;15.60;28.82;99613.06;4377392;32;32558;-86
2023/04/26 11:20:54;;;;;;;;;;;;;;;15.85;28.96;99617.59;4390325;32;32352;-87
2023/04/26 11:23:23;;;;;;;;;;;;;;;15.41;29.60;99614.41;4373690;32;33191;-87
2023/04/26 11:25:51;;;;;;;;;;;;;;;15.53;29.24;99617.12;4395713;32;32943;-87
2023/04/26 11:28:26;;;;;;;;;;;;;;;16.06;28.12;99615.31;4387136;32;33600;-87
2023/04/26 11:30:58;;;;;;;;;;;;;;;15.42;28.97;99629.41;4376846;32;34093;-86
2023/04/26 11:33:28;;;;;;;;;;;;;;;15.48;28.53;99632.53;4387693;32;33410;-85
2023/04/26 11:35:57;;;;;;;;;;;;;;;15.33;29.56;99637.06;4366536;32;33594;-85
2023/04/26 11:38:27;;;;;;;;;;;;;;;14.91;29.35;99635.41;4390485;32;34488;-86
2023/04/26 11:41:01;;;;;;;;;;;;;;;14.69;29.41;99627.94;4376395;32;33224;-87
2023/04/26 11:43:31;;;;;;;;;;;;;;;14.65;30.36;99628.22;4388059;32;35272;-85
2023/04/26 11:46:02;;;;;;;;;;;;;;;14.90;30.21;99623.03;4379040;32;32766;-85
2023/04/26 11:48:33;;;;;;;;;;;;;;;15.16;29.71;99623.16;4388860;32;32800;-85
2023/04/26 11:51:02;;;;;;;;;;;;;;;15.34;28.86;99627.28;4375902;32;32740;-85
2023/04/26 11:53:38;;;;;;;;;;;;;;;15.03;31.11;99623.94;4377316;32;33939;-86
2023/04/26 11:56:16;;;;;;;;;;;;;;;15.58;29.94;99630.97;4377058;32;33425;-86
2023/04/26 11:58:51;;;;;;;;;;;;;;;15.64;28.16;99647.50;4388370;32;33520;-86
2023/04/26 12:01:25;;;;;;;;;;;;;;;15.51;28.73;99632.31;4388930;32;34207;-86
2023/04/26 12:03:58;;;;;;;;;;;;;;;15.49;29.23;99644.88;4380592;32;33787;-87
2023/04/26 12:06:44;;;;;;;;;;;;;;;14.93;29.34;99649.44;4392387;32;32168;-86
2023/04/26 12:09:16;;;;;;;;;;;;;;;14.98;28.45;99643.81;4390203;32;34434;-85
2023/04/26 12:11:48;;;;;;;;;;;;;;;15.09;29.52;99647.47;4394021;32;31803;-86
2023/04/26 12:14:21;;;;;;;;;;;;;;;15.33;28.10;99641.50;4378295;32;31090;-85
2023/04/26 12:16:51;;;;;;;;;;;;;;;15.44;27.60;99644.34;4392284;32;34228;-84
2023/04/26 12:19:24;;;;;;;;;;;;;;;15.46;26.40;99645.06;4371088;32;32532;-86
2023/04/26 12:21:54;;;;;;;;;;;;;;;15.73;27.14;99623.78;4366662;32;35220;-86
2023/04/26 12:24:26;;;;;;;;;;;;;;;15.90;27.41;99625.28;4381239;32;33613;-86
2023/04/26 12:26:55;;;;;;;;;;;;;;;16.05;28.21;99613.59;4381397;32;33675;-89
2023/04/26 12:29:30;;;;;;;;;;;;;;;16.37;27.88;99614.00;4406435;32;32099;-87
2023/04/26 12:32:05;;;;;;;;;;;;;;;16.59;27.39;99610.66;4403992;32;33799;-88
2023/04/26 12:34:34;;;;;;;;;;;;;;;16.12;27.91;99638.00;4376578;32;33715;-86
2023/04/26 12:37:04;;;;;;;;;;;;;;;16.30;27.36;99639.38;4378042;32;32662;-87
2023/04/26 12:39:33;;;;;;;;;;;;;;;16.31;26.98;99635.75;4383671;32;32263;-85
2023/04/26 12:42:01;;;;;;;;;;;;;;;16.32;27.73;99644.59;4392375;32;33444;-85
2023/04/26 12:44:33;;;;;;;;;;;;;;;16.14;28.38;99652.03;4390735;32;34155;-87
2023/04/26 12:47:03;;;;;;;;;;;;;;;15.84;27.09;99649.66;4380478;32;32932;-87
2023/04/26 12:49:31;;;;;;;;;;;;;;;15.80;26.76;99646.34;4382710;32;32433;-87
2023/04/26 12:52:00;;;;;;;;;;;;;;;15.55;27.58;99649.78;4379859;32;33118;-88
2023/04/26 12:54:29;;;;;;;;;;;;;;;15.57;27.81;99650.56;4378735;32;33263;-87
2023/04/26 12:56:57;;;;;;;;;;;;;;;15.35;27.60;99650.25;4393672;32;32517;-88
2023/04/26 12:59:31;;;;;;;;;;;;;;;14.82;29.55;99659.91;4405484;32;36226;-88
2023/04/26 13:02:02;;;;;;;;;;;;;;;15.20;28.37;99657.44;4394493;32;32822;-87
2023/04/26 13:04:32;;;;;;;;;;;;;;;15.24;27.47;99658.97;4391905;32;33338;-87
2023/04/26 13:07:05;;;;;;;;;;;;;;;14.92;29.19;99652.19;4379915;32;31587;-87
2023/04/26 13:09:43;;;;;;;;;;;;;;;15.23;27.22;99651.06;4391829;32;32162;-84
2023/04/26 13:12:13;;;;;;;;;;;;;;;15.15;29.88;99645.41;4404653;32;33898;-86